sensor_id;sensor_type;location;lat;lon;timestamp;P1;durP1;ratioP1;P2;durP2;ratioP2
71888;SDS011;59762;49.998;14.858;2024-01-07T00:00:08;10.77;;;4.10;;
71888;SDS011;59762;49.998;14.858;2024-01-07T00:02:35;8.82;;;4.63;;
71888;SDS011;59762;49.998;14.858;2024-01-07T00:05:01;7.75;;;3.83;;
71888;SDS011;59762;49.998;14.858;2024-01-07T00:07:27;7.80;;;3.83;;
71888;SDS011;59762;49.998;14.858;2024-01-07T00:09:53;10.75;;;4.75;;
71888;SDS011;59762;49.998;14.858;2024-01-07T00:12:19;8.10;;;4.75;;
71888;SDS011;59762;49.998;14.858;2024-01-07T00:14:44;14.20;;;5.00;;
71888;SDS011;59762;49.998;14.858;2024-01-07T00:17:10;9.32;;;5.00;;
71888;SDS011;59762;49.998;14.858;2024-01-07T00:19:36;5.95;;;3.85;;
71888;SDS011;59762;49.998;14.858;2024-01-07T00:22:03;7.55;;;5.10;;
71888;SDS011;59762;49.998;14.858;2024-01-07T00:24:28;7.63;;;5.05;;
71888;SDS011;59762;49.998;14.858;2024-01-07T00:26:54;10.98;;;5.22;;
71888;SDS011;59762;49.998;14.858;2024-01-07T00:29:21;13.48;;;5.70;;
71888;SDS011;59762;49.998;14.858;2024-01-07T00:31:47;12.10;;;5.47;;
71888;SDS011;59762;49.998;14.858;2024-01-07T00:34:12;10.05;;;5.47;;
71888;SDS011;59762;49.998;14.858;2024-01-07T00:36:38;9.02;;;4.28;;
71888;SDS011;59762;49.998;14.858;2024-01-07T00:39:03;8.32;;;5.47;;
71888;SDS011;59762;49.998;14.858;2024-01-07T00:41:30;9.77;;;5.25;;
71888;SDS011;59762;49.998;14.858;2024-01-07T00:43:55;17.15;;;6.20;;
71888;SDS011;59762;49.998;14.858;2024-01-07T00:46:21;9.85;;;5.95;;
71888;SDS011;59762;49.998;14.858;2024-01-07T00:48:47;8.82;;;4.97;;
71888;SDS011;59762;49.998;14.858;2024-01-07T00:51:13;8.73;;;4.72;;
71888;SDS011;59762;49.998;14.858;2024-01-07T00:53:39;10.20;;;6.25;;
71888;SDS011;59762;49.998;14.858;2024-01-07T00:56:05;8.80;;;5.90;;
71888;SDS011;59762;49.998;14.858;2024-01-07T00:58:31;13.45;;;5.43;;
71888;SDS011;59762;49.998;14.858;2024-01-07T01:00:57;11.38;;;5.10;;
71888;SDS011;59762;49.998;14.858;2024-01-07T01:03:25;8.18;;;4.75;;
71888;SDS011;59762;49.998;14.858;2024-01-07T01:05:51;13.85;;;5.57;;
71888;SDS011;59762;49.998;14.858;2024-01-07T01:08:17;10.73;;;6.80;;
71888;SDS011;59762;49.998;14.858;2024-01-07T01:10:43;9.55;;;4.80;;
71888;SDS011;59762;49.998;14.858;2024-01-07T01:13:08;8.10;;;4.93;;
71888;SDS011;59762;49.998;14.858;2024-01-07T01:15:34;9.45;;;5.28;;
71888;SDS011;59762;49.998;14.858;2024-01-07T01:18:00;12.90;;;5.80;;
71888;SDS011;59762;49.998;14.858;2024-01-07T01:20:26;10.18;;;5.60;;
71888;SDS011;59762;49.998;14.858;2024-01-07T01:22:51;7.25;;;4.22;;
71888;SDS011;59762;49.998;14.858;2024-01-07T01:25:17;7.07;;;4.78;;
71888;SDS011;59762;49.998;14.858;2024-01-07T01:27:43;12.38;;;6.05;;
71888;SDS011;59762;49.998;14.858;2024-01-07T01:30:10;15.70;;;6.05;;
71888;SDS011;59762;49.998;14.858;2024-01-07T01:32:36;8.70;;;4.55;;
71888;SDS011;59762;49.998;14.858;2024-01-07T01:35:02;13.23;;;4.80;;
71888;SDS011;59762;49.998;14.858;2024-01-07T01:37:30;11.35;;;6.10;;
71888;SDS011;59762;49.998;14.858;2024-01-07T01:39:58;11.68;;;4.53;;
71888;SDS011;59762;49.998;14.858;2024-01-07T01:42:24;14.00;;;6.28;;
71888;SDS011;59762;49.998;14.858;2024-01-07T01:44:50;12.80;;;5.57;;
71888;SDS011;59762;49.998;14.858;2024-01-07T01:47:17;8.07;;;3.97;;
71888;SDS011;59762;49.998;14.858;2024-01-07T01:49:43;10.80;;;6.28;;
71888;SDS011;59762;49.998;14.858;2024-01-07T01:52:11;14.32;;;6.25;;
71888;SDS011;59762;49.998;14.858;2024-01-07T01:54:38;11.38;;;5.22;;
71888;SDS011;59762;49.998;14.858;2024-01-07T01:57:05;14.52;;;6.82;;
71888;SDS011;59762;49.998;14.858;2024-01-07T01:59:31;11.70;;;5.60;;
71888;SDS011;59762;49.998;14.858;2024-01-07T02:01:59;13.00;;;5.30;;
71888;SDS011;59762;49.998;14.858;2024-01-07T02:04:26;13.23;;;4.72;;
71888;SDS011;59762;49.998;14.858;2024-01-07T02:06:52;8.48;;;5.32;;
71888;SDS011;59762;49.998;14.858;2024-01-07T02:09:18;8.65;;;4.55;;
71888;SDS011;59762;49.998;14.858;2024-01-07T02:11:43;7.90;;;4.63;;
71888;SDS011;59762;49.998;14.858;2024-01-07T02:14:09;14.95;;;3.30;;
71888;SDS011;59762;49.998;14.858;2024-01-07T02:16:34;8.20;;;3.78;;
71888;SDS011;59762;49.998;14.858;2024-01-07T02:19:00;7.18;;;4.95;;
71888;SDS011;59762;49.998;14.858;2024-01-07T02:21:26;16.58;;;6.97;;
71888;SDS011;59762;49.998;14.858;2024-01-07T02:23:52;7.25;;;4.05;;
71888;SDS011;59762;49.998;14.858;2024-01-07T02:26:17;7.25;;;4.13;;
71888;SDS011;59762;49.998;14.858;2024-01-07T02:28:43;11.65;;;4.80;;
71888;SDS011;59762;49.998;14.858;2024-01-07T02:31:09;9.32;;;4.13;;
71888;SDS011;59762;49.998;14.858;2024-01-07T02:33:35;11.18;;;3.58;;
71888;SDS011;59762;49.998;14.858;2024-01-07T02:36:00;7.30;;;4.07;;
71888;SDS011;59762;49.998;14.858;2024-01-07T02:38:26;7.78;;;4.80;;
71888;SDS011;59762;49.998;14.858;2024-01-07T02:40:52;9.40;;;4.47;;
71888;SDS011;59762;49.998;14.858;2024-01-07T02:43:17;10.57;;;5.95;;
71888;SDS011;59762;49.998;14.858;2024-01-07T02:45:43;6.90;;;3.90;;
71888;SDS011;59762;49.998;14.858;2024-01-07T02:48:09;7.82;;;3.85;;
71888;SDS011;59762;49.998;14.858;2024-01-07T02:50:34;6.38;;;3.08;;
71888;SDS011;59762;49.998;14.858;2024-01-07T02:53:00;6.72;;;3.72;;
71888;SDS011;59762;49.998;14.858;2024-01-07T02:55:25;6.00;;;4.22;;
71888;SDS011;59762;49.998;14.858;2024-01-07T02:57:51;6.82;;;3.83;;
71888;SDS011;59762;49.998;14.858;2024-01-07T03:00:17;7.38;;;3.58;;
71888;SDS011;59762;49.998;14.858;2024-01-07T03:02:43;8.70;;;4.07;;
71888;SDS011;59762;49.998;14.858;2024-01-07T03:05:08;5.03;;;3.60;;
71888;SDS011;59762;49.998;14.858;2024-01-07T03:07:34;12.82;;;3.45;;
71888;SDS011;59762;49.998;14.858;2024-01-07T03:10:00;6.82;;;3.75;;
71888;SDS011;59762;49.998;14.858;2024-01-07T03:12:27;4.45;;;3.08;;
71888;SDS011;59762;49.998;14.858;2024-01-07T03:14:52;4.75;;;3.83;;
71888;SDS011;59762;49.998;14.858;2024-01-07T03:17:18;8.20;;;3.88;;
71888;SDS011;59762;49.998;14.858;2024-01-07T03:19:44;6.65;;;3.00;;
71888;SDS011;59762;49.998;14.858;2024-01-07T03:22:09;11.23;;;3.50;;
71888;SDS011;59762;49.998;14.858;2024-01-07T03:24:35;4.63;;;3.00;;
71888;SDS011;59762;49.998;14.858;2024-01-07T03:27:01;7.30;;;4.55;;
71888;SDS011;59762;49.998;14.858;2024-01-07T03:29:26;7.63;;;3.60;;
71888;SDS011;59762;49.998;14.858;2024-01-07T03:31:52;5.93;;;4.05;;
71888;SDS011;59762;49.998;14.858;2024-01-07T03:34:18;3.17;;;2.03;;
71888;SDS011;59762;49.998;14.858;2024-01-07T03:36:45;7.82;;;3.92;;
71888;SDS011;59762;49.998;14.858;2024-01-07T03:39:10;5.07;;;3.28;;
71888;SDS011;59762;49.998;14.858;2024-01-07T03:41:36;4.28;;;2.60;;
71888;SDS011;59762;49.998;14.858;2024-01-07T03:44:02;5.10;;;3.20;;
71888;SDS011;59762;49.998;14.858;2024-01-07T03:46:28;5.65;;;3.25;;
71888;SDS011;59762;49.998;14.858;2024-01-07T03:48:53;13.77;;;4.32;;
71888;SDS011;59762;49.998;14.858;2024-01-07T03:51:19;3.75;;;2.88;;
71888;SDS011;59762;49.998;14.858;2024-01-07T03:53:45;7.53;;;3.22;;
71888;SDS011;59762;49.998;14.858;2024-01-07T03:56:10;8.02;;;3.70;;
71888;SDS011;59762;49.998;14.858;2024-01-07T03:58:36;4.20;;;3.45;;
71888;SDS011;59762;49.998;14.858;2024-01-07T04:01:02;2.88;;;2.25;;
71888;SDS011;59762;49.998;14.858;2024-01-07T04:03:28;8.73;;;3.38;;
71888;SDS011;59762;49.998;14.858;2024-01-07T04:05:53;5.80;;;3.95;;
71888;SDS011;59762;49.998;14.858;2024-01-07T04:08:19;5.38;;;3.47;;
71888;SDS011;59762;49.998;14.858;2024-01-07T04:10:45;3.38;;;2.70;;
71888;SDS011;59762;49.998;14.858;2024-01-07T04:13:10;6.43;;;3.35;;
71888;SDS011;59762;49.998;14.858;2024-01-07T04:15:36;6.05;;;3.55;;
71888;SDS011;59762;49.998;14.858;2024-01-07T04:18:05;3.95;;;2.58;;
71888;SDS011;59762;49.998;14.858;2024-01-07T04:20:31;8.60;;;3.22;;
71888;SDS011;59762;49.998;14.858;2024-01-07T04:22:57;6.45;;;3.75;;
71888;SDS011;59762;49.998;14.858;2024-01-07T04:25:23;5.13;;;3.20;;
71888;SDS011;59762;49.998;14.858;2024-01-07T04:27:49;6.50;;;4.50;;
71888;SDS011;59762;49.998;14.858;2024-01-07T04:30:15;5.35;;;2.97;;
71888;SDS011;59762;49.998;14.858;2024-01-07T04:32:40;6.53;;;3.88;;
71888;SDS011;59762;49.998;14.858;2024-01-07T04:35:06;3.92;;;2.00;;
71888;SDS011;59762;49.998;14.858;2024-01-07T04:37:32;3.10;;;2.17;;
71888;SDS011;59762;49.998;14.858;2024-01-07T04:39:58;5.65;;;3.17;;
71888;SDS011;59762;49.998;14.858;2024-01-07T04:42:24;3.85;;;1.58;;
71888;SDS011;59762;49.998;14.858;2024-01-07T04:44:50;6.28;;;3.25;;
71888;SDS011;59762;49.998;14.858;2024-01-07T04:49:52;5.63;;;2.65;;
71888;SDS011;59762;49.998;14.858;2024-01-07T04:52:18;4.03;;;2.67;;
71888;SDS011;59762;49.998;14.858;2024-01-07T04:54:43;6.90;;;3.22;;
71888;SDS011;59762;49.998;14.858;2024-01-07T04:57:09;8.25;;;4.07;;
71888;SDS011;59762;49.998;14.858;2024-01-07T04:59:35;5.05;;;2.95;;
71888;SDS011;59762;49.998;14.858;2024-01-07T05:02:01;4.95;;;2.20;;
71888;SDS011;59762;49.998;14.858;2024-01-07T05:04:26;3.13;;;2.05;;
71888;SDS011;59762;49.998;14.858;2024-01-07T05:06:52;7.82;;;1.73;;
71888;SDS011;59762;49.998;14.858;2024-01-07T05:09:18;3.58;;;2.72;;
71888;SDS011;59762;49.998;14.858;2024-01-07T05:11:43;5.93;;;2.42;;
71888;SDS011;59762;49.998;14.858;2024-01-07T05:14:10;8.00;;;3.45;;
71888;SDS011;59762;49.998;14.858;2024-01-07T05:16:37;9.50;;;2.85;;
71888;SDS011;59762;49.998;14.858;2024-01-07T05:19:02;2.42;;;1.95;;
71888;SDS011;59762;49.998;14.858;2024-01-07T05:21:29;5.32;;;2.45;;
71888;SDS011;59762;49.998;14.858;2024-01-07T05:23:54;5.68;;;2.75;;
71888;SDS011;59762;49.998;14.858;2024-01-07T05:26:21;6.40;;;3.15;;
71888;SDS011;59762;49.998;14.858;2024-01-07T05:28:47;3.63;;;2.03;;
71888;SDS011;59762;49.998;14.858;2024-01-07T05:31:16;6.57;;;2.92;;
71888;SDS011;59762;49.998;14.858;2024-01-07T05:33:42;3.95;;;2.42;;
71888;SDS011;59762;49.998;14.858;2024-01-07T05:36:09;3.58;;;2.13;;
71888;SDS011;59762;49.998;14.858;2024-01-07T05:38:35;5.68;;;2.83;;
71888;SDS011;59762;49.998;14.858;2024-01-07T05:41:01;5.45;;;4.45;;
71888;SDS011;59762;49.998;14.858;2024-01-07T05:43:26;2.38;;;1.38;;
71888;SDS011;59762;49.998;14.858;2024-01-07T05:45:52;2.20;;;1.98;;
71888;SDS011;59762;49.998;14.858;2024-01-07T05:48:18;5.20;;;3.55;;
71888;SDS011;59762;49.998;14.858;2024-01-07T05:50:46;3.83;;;2.38;;
71888;SDS011;59762;49.998;14.858;2024-01-07T05:53:12;7.45;;;2.80;;
71888;SDS011;59762;49.998;14.858;2024-01-07T05:55:38;6.35;;;3.58;;
71888;SDS011;59762;49.998;14.858;2024-01-07T05:58:03;1.63;;;1.30;;
71888;SDS011;59762;49.998;14.858;2024-01-07T06:00:29;3.90;;;2.53;;
71888;SDS011;59762;49.998;14.858;2024-01-07T06:02:55;2.28;;;1.63;;
71888;SDS011;59762;49.998;14.858;2024-01-07T06:05:21;9.27;;;2.92;;
71888;SDS011;59762;49.998;14.858;2024-01-07T06:07:46;10.43;;;3.83;;
71888;SDS011;59762;49.998;14.858;2024-01-07T06:10:12;4.20;;;3.22;;
71888;SDS011;59762;49.998;14.858;2024-01-07T06:12:38;5.65;;;2.97;;
71888;SDS011;59762;49.998;14.858;2024-01-07T06:15:04;3.50;;;2.08;;
71888;SDS011;59762;49.998;14.858;2024-01-07T06:17:30;7.07;;;2.60;;
71888;SDS011;59762;49.998;14.858;2024-01-07T06:19:56;6.38;;;3.13;;
71888;SDS011;59762;49.998;14.858;2024-01-07T06:22:22;5.25;;;2.53;;
71888;SDS011;59762;49.998;14.858;2024-01-07T06:24:48;5.72;;;2.53;;
71888;SDS011;59762;49.998;14.858;2024-01-07T06:27:14;6.32;;;3.08;;
71888;SDS011;59762;49.998;14.858;2024-01-07T06:29:40;5.13;;;3.10;;
71888;SDS011;59762;49.998;14.858;2024-01-07T06:32:05;2.95;;;2.03;;
71888;SDS011;59762;49.998;14.858;2024-01-07T06:34:31;5.68;;;3.53;;
71888;SDS011;59762;49.998;14.858;2024-01-07T06:36:58;3.42;;;2.10;;
71888;SDS011;59762;49.998;14.858;2024-01-07T06:39:24;6.25;;;2.88;;
71888;SDS011;59762;49.998;14.858;2024-01-07T06:41:52;5.75;;;3.88;;
71888;SDS011;59762;49.998;14.858;2024-01-07T06:44:18;6.13;;;2.65;;
71888;SDS011;59762;49.998;14.858;2024-01-07T06:46:44;5.50;;;2.92;;
71888;SDS011;59762;49.998;14.858;2024-01-07T06:49:09;5.35;;;3.25;;
71888;SDS011;59762;49.998;14.858;2024-01-07T06:51:35;3.55;;;2.45;;
71888;SDS011;59762;49.998;14.858;2024-01-07T06:54:01;10.25;;;3.20;;
71888;SDS011;59762;49.998;14.858;2024-01-07T06:56:27;3.67;;;3.00;;
71888;SDS011;59762;49.998;14.858;2024-01-07T06:58:52;5.45;;;2.38;;
71888;SDS011;59762;49.998;14.858;2024-01-07T07:01:21;6.72;;;2.85;;
71888;SDS011;59762;49.998;14.858;2024-01-07T07:03:50;4.22;;;2.80;;
71888;SDS011;59762;49.998;14.858;2024-01-07T07:06:16;4.97;;;2.67;;
71888;SDS011;59762;49.998;14.858;2024-01-07T07:08:42;5.78;;;3.70;;
71888;SDS011;59762;49.998;14.858;2024-01-07T07:11:08;4.22;;;2.88;;
71888;SDS011;59762;49.998;14.858;2024-01-07T07:13:34;7.05;;;3.22;;
71888;SDS011;59762;49.998;14.858;2024-01-07T07:16:00;5.75;;;3.42;;
71888;SDS011;59762;49.998;14.858;2024-01-07T07:18:26;6.10;;;3.10;;
71888;SDS011;59762;49.998;14.858;2024-01-07T07:20:51;7.25;;;3.78;;
71888;SDS011;59762;49.998;14.858;2024-01-07T07:23:18;5.80;;;2.63;;
71888;SDS011;59762;49.998;14.858;2024-01-07T07:25:43;4.60;;;3.00;;
71888;SDS011;59762;49.998;14.858;2024-01-07T07:28:09;40.97;;;18.88;;
71888;SDS011;59762;49.998;14.858;2024-01-07T07:30:35;30.75;;;13.80;;
71888;SDS011;59762;49.998;14.858;2024-01-07T07:33:01;20.17;;;10.50;;
71888;SDS011;59762;49.998;14.858;2024-01-07T07:35:27;9.38;;;5.10;;
71888;SDS011;59762;49.998;14.858;2024-01-07T07:37:53;19.88;;;12.10;;
71888;SDS011;59762;49.998;14.858;2024-01-07T07:40:20;16.02;;;9.30;;
71888;SDS011;59762;49.998;14.858;2024-01-07T07:42:46;10.38;;;5.75;;
71888;SDS011;59762;49.998;14.858;2024-01-07T07:45:11;7.28;;;4.60;;
71888;SDS011;59762;49.998;14.858;2024-01-07T07:47:38;9.43;;;6.10;;
71888;SDS011;59762;49.998;14.858;2024-01-07T07:50:06;8.50;;;4.93;;
71888;SDS011;59762;49.998;14.858;2024-01-07T07:52:32;6.03;;;3.65;;
71888;SDS011;59762;49.998;14.858;2024-01-07T07:54:58;7.30;;;3.15;;
71888;SDS011;59762;49.998;14.858;2024-01-07T07:57:24;4.00;;;3.40;;
71888;SDS011;59762;49.998;14.858;2024-01-07T07:59:50;5.20;;;3.35;;
71888;SDS011;59762;49.998;14.858;2024-01-07T08:02:16;8.65;;;3.78;;
71888;SDS011;59762;49.998;14.858;2024-01-07T08:04:42;3.00;;;2.50;;
71888;SDS011;59762;49.998;14.858;2024-01-07T08:07:09;5.60;;;3.00;;
71888;SDS011;59762;49.998;14.858;2024-01-07T08:09:35;6.05;;;2.50;;
71888;SDS011;59762;49.998;14.858;2024-01-07T08:12:05;5.07;;;3.00;;
71888;SDS011;59762;49.998;14.858;2024-01-07T08:14:31;3.47;;;2.35;;
71888;SDS011;59762;49.998;14.858;2024-01-07T08:16:58;8.82;;;3.38;;
71888;SDS011;59762;49.998;14.858;2024-01-07T08:19:24;5.50;;;4.03;;
71888;SDS011;59762;49.998;14.858;2024-01-07T08:21:49;3.13;;;2.22;;
71888;SDS011;59762;49.998;14.858;2024-01-07T08:24:15;3.78;;;3.47;;
71888;SDS011;59762;49.998;14.858;2024-01-07T08:26:41;3.25;;;2.08;;
71888;SDS011;59762;49.998;14.858;2024-01-07T08:29:06;6.72;;;3.42;;
71888;SDS011;59762;49.998;14.858;2024-01-07T08:31:32;4.05;;;3.58;;
71888;SDS011;59762;49.998;14.858;2024-01-07T08:33:58;7.88;;;4.38;;
71888;SDS011;59762;49.998;14.858;2024-01-07T08:36:24;8.55;;;4.10;;
71888;SDS011;59762;49.998;14.858;2024-01-07T08:38:49;4.90;;;4.15;;
71888;SDS011;59762;49.998;14.858;2024-01-07T08:41:16;7.47;;;4.55;;
71888;SDS011;59762;49.998;14.858;2024-01-07T08:43:41;5.45;;;2.75;;
71888;SDS011;59762;49.998;14.858;2024-01-07T08:46:07;4.22;;;2.75;;
71888;SDS011;59762;49.998;14.858;2024-01-07T08:48:33;5.10;;;2.25;;
71888;SDS011;59762;49.998;14.858;2024-01-07T08:50:59;9.70;;;3.97;;
71888;SDS011;59762;49.998;14.858;2024-01-07T08:53:24;5.30;;;1.77;;
71888;SDS011;59762;49.998;14.858;2024-01-07T08:55:50;6.60;;;2.78;;
71888;SDS011;59762;49.998;14.858;2024-01-07T08:58:16;3.50;;;2.92;;
71888;SDS011;59762;49.998;14.858;2024-01-07T09:00:43;4.45;;;3.65;;
71888;SDS011;59762;49.998;14.858;2024-01-07T09:03:09;10.00;;;4.15;;
71888;SDS011;59762;49.998;14.858;2024-01-07T09:05:36;4.18;;;3.42;;
71888;SDS011;59762;49.998;14.858;2024-01-07T09:08:02;4.78;;;3.35;;
71888;SDS011;59762;49.998;14.858;2024-01-07T09:10:28;4.80;;;2.92;;
71888;SDS011;59762;49.998;14.858;2024-01-07T09:12:53;6.53;;;3.65;;
71888;SDS011;59762;49.998;14.858;2024-01-07T09:15:20;8.40;;;4.13;;
71888;SDS011;59762;49.998;14.858;2024-01-07T09:17:46;4.22;;;2.53;;
71888;SDS011;59762;49.998;14.858;2024-01-07T09:20:12;6.43;;;2.35;;
71888;SDS011;59762;49.998;14.858;2024-01-07T09:22:38;3.28;;;2.20;;
71888;SDS011;59762;49.998;14.858;2024-01-07T09:25:05;6.45;;;2.47;;
71888;SDS011;59762;49.998;14.858;2024-01-07T09:27:32;2.17;;;1.95;;
71888;SDS011;59762;49.998;14.858;2024-01-07T09:29:58;7.05;;;2.35;;
71888;SDS011;59762;49.998;14.858;2024-01-07T09:32:24;4.78;;;2.50;;
71888;SDS011;59762;49.998;14.858;2024-01-07T09:34:50;3.83;;;2.22;;
71888;SDS011;59762;49.998;14.858;2024-01-07T09:37:16;3.80;;;3.13;;
71888;SDS011;59762;49.998;14.858;2024-01-07T09:39:43;5.35;;;3.05;;
71888;SDS011;59762;49.998;14.858;2024-01-07T09:42:16;3.83;;;2.80;;
71888;SDS011;59762;49.998;14.858;2024-01-07T09:44:43;3.83;;;2.13;;
71888;SDS011;59762;49.998;14.858;2024-01-07T09:47:10;3.08;;;2.45;;
71888;SDS011;59762;49.998;14.858;2024-01-07T09:49:38;4.65;;;2.38;;
71888;SDS011;59762;49.998;14.858;2024-01-07T09:52:04;4.55;;;2.50;;
71888;SDS011;59762;49.998;14.858;2024-01-07T09:54:31;2.78;;;2.22;;
71888;SDS011;59762;49.998;14.858;2024-01-07T09:57:01;2.00;;;1.85;;
71888;SDS011;59762;49.998;14.858;2024-01-07T09:59:28;2.47;;;1.90;;
71888;SDS011;59762;49.998;14.858;2024-01-07T10:01:54;8.60;;;2.35;;
71888;SDS011;59762;49.998;14.858;2024-01-07T10:04:21;5.57;;;2.33;;
71888;SDS011;59762;49.998;14.858;2024-01-07T10:06:47;5.30;;;3.42;;
71888;SDS011;59762;49.998;14.858;2024-01-07T10:09:17;3.95;;;2.42;;
71888;SDS011;59762;49.998;14.858;2024-01-07T10:11:43;3.95;;;2.47;;
71888;SDS011;59762;49.998;14.858;2024-01-07T10:14:09;3.72;;;3.22;;
71888;SDS011;59762;49.998;14.858;2024-01-07T10:16:35;12.77;;;3.53;;
71888;SDS011;59762;49.998;14.858;2024-01-07T10:19:01;4.75;;;3.10;;
71888;SDS011;59762;49.998;14.858;2024-01-07T10:21:27;4.55;;;3.30;;
71888;SDS011;59762;49.998;14.858;2024-01-07T10:24:11;3.58;;;2.28;;
71888;SDS011;59762;49.998;14.858;2024-01-07T10:26:38;2.50;;;2.00;;
71888;SDS011;59762;49.998;14.858;2024-01-07T10:29:04;3.10;;;2.63;;
71888;SDS011;59762;49.998;14.858;2024-01-07T10:31:34;4.85;;;3.20;;
71888;SDS011;59762;49.998;14.858;2024-01-07T10:34:00;2.60;;;1.58;;
71888;SDS011;59762;49.998;14.858;2024-01-07T10:36:26;2.13;;;1.77;;
71888;SDS011;59762;49.998;14.858;2024-01-07T10:38:52;5.45;;;3.58;;
71888;SDS011;59762;49.998;14.858;2024-01-07T10:41:19;2.75;;;1.77;;
71888;SDS011;59762;49.998;14.858;2024-01-07T10:43:48;3.13;;;2.72;;
71888;SDS011;59762;49.998;14.858;2024-01-07T10:46:15;2.47;;;1.70;;
71888;SDS011;59762;49.998;14.858;2024-01-07T10:51:13;1.98;;;1.50;;
71888;SDS011;59762;49.998;14.858;2024-01-07T10:53:40;3.58;;;2.25;;
71888;SDS011;59762;49.998;14.858;2024-01-07T10:56:10;3.25;;;2.35;;
71888;SDS011;59762;49.998;14.858;2024-01-07T10:58:38;4.85;;;1.90;;
71888;SDS011;59762;49.998;14.858;2024-01-07T11:01:05;11.30;;;1.88;;
71888;SDS011;59762;49.998;14.858;2024-01-07T11:03:53;3.97;;;1.90;;
71888;SDS011;59762;49.998;14.858;2024-01-07T11:09:19;2.78;;;1.77;;
71888;SDS011;59762;49.998;14.858;2024-01-07T11:11:46;1.27;;;1.02;;
71888;SDS011;59762;49.998;14.858;2024-01-07T11:17:05;3.50;;;1.48;;
71888;SDS011;59762;49.998;14.858;2024-01-07T11:19:32;2.83;;;2.58;;
71888;SDS011;59762;49.998;14.858;2024-01-07T11:22:43;1.75;;;1.55;;
71888;SDS011;59762;49.998;14.858;2024-01-07T11:24:51;1.88;;;1.77;;
71888;SDS011;59762;49.998;14.858;2024-01-07T11:27:17;4.75;;;2.60;;
71888;SDS011;59762;49.998;14.858;2024-01-07T11:29:43;6.18;;;2.08;;
71888;SDS011;59762;49.998;14.858;2024-01-07T11:32:12;2.65;;;1.90;;
71888;SDS011;59762;49.998;14.858;2024-01-07T11:34:42;2.30;;;1.98;;
71888;SDS011;59762;49.998;14.858;2024-01-07T11:37:12;3.53;;;2.20;;
71888;SDS011;59762;49.998;14.858;2024-01-07T11:39:41;3.63;;;1.70;;
71888;SDS011;59762;49.998;14.858;2024-01-07T11:42:08;2.85;;;1.88;;
71888;SDS011;59762;49.998;14.858;2024-01-07T11:44:34;2.33;;;1.85;;
71888;SDS011;59762;49.998;14.858;2024-01-07T11:47:03;3.20;;;1.58;;
71888;SDS011;59762;49.998;14.858;2024-01-07T11:49:31;5.20;;;1.88;;
71888;SDS011;59762;49.998;14.858;2024-01-07T11:51:58;1.55;;;1.45;;
71888;SDS011;59762;49.998;14.858;2024-01-07T11:54:24;2.90;;;1.63;;
71888;SDS011;59762;49.998;14.858;2024-01-07T11:56:50;5.38;;;2.30;;
71888;SDS011;59762;49.998;14.858;2024-01-07T11:59:16;1.77;;;1.67;;
71888;SDS011;59762;49.998;14.858;2024-01-07T12:01:42;3.88;;;2.42;;
71888;SDS011;59762;49.998;14.858;2024-01-07T12:04:08;1.73;;;1.30;;
71888;SDS011;59762;49.998;14.858;2024-01-07T12:06:34;3.08;;;1.45;;
71888;SDS011;59762;49.998;14.858;2024-01-07T12:09:00;6.03;;;1.50;;
71888;SDS011;59762;49.998;14.858;2024-01-07T12:11:26;2.40;;;1.85;;
71888;SDS011;59762;49.998;14.858;2024-01-07T12:13:52;3.38;;;2.63;;
71888;SDS011;59762;49.998;14.858;2024-01-07T12:16:18;4.22;;;2.75;;
71888;SDS011;59762;49.998;14.858;2024-01-07T12:18:44;5.28;;;3.05;;
71888;SDS011;59762;49.998;14.858;2024-01-07T12:21:10;3.13;;;2.28;;
71888;SDS011;59762;49.998;14.858;2024-01-07T12:23:35;3.53;;;2.28;;
71888;SDS011;59762;49.998;14.858;2024-01-07T12:26:08;1.90;;;1.80;;
71888;SDS011;59762;49.998;14.858;2024-01-07T12:28:35;4.32;;;2.35;;
71888;SDS011;59762;49.998;14.858;2024-01-07T12:31:02;2.13;;;1.90;;
71888;SDS011;59762;49.998;14.858;2024-01-07T12:33:29;2.35;;;2.03;;
71888;SDS011;59762;49.998;14.858;2024-01-07T12:35:56;4.60;;;2.30;;
71888;SDS011;59762;49.998;14.858;2024-01-07T12:38:26;1.77;;;1.40;;
71888;SDS011;59762;49.998;14.858;2024-01-07T12:40:55;1.90;;;1.67;;
71888;SDS011;59762;49.998;14.858;2024-01-07T12:43:22;1.83;;;1.58;;
71888;SDS011;59762;49.998;14.858;2024-01-07T12:45:48;3.83;;;1.92;;
71888;SDS011;59762;49.998;14.858;2024-01-07T12:48:14;2.63;;;1.23;;
71888;SDS011;59762;49.998;14.858;2024-01-07T12:50:40;7.57;;;3.35;;
71888;SDS011;59762;49.998;14.858;2024-01-07T12:53:06;3.83;;;2.58;;
71888;SDS011;59762;49.998;14.858;2024-01-07T12:55:33;3.53;;;1.85;;
71888;SDS011;59762;49.998;14.858;2024-01-07T12:58:00;5.05;;;2.55;;
71888;SDS011;59762;49.998;14.858;2024-01-07T13:00:25;3.00;;;1.77;;
71888;SDS011;59762;49.998;14.858;2024-01-07T13:02:54;3.15;;;2.80;;
71888;SDS011;59762;49.998;14.858;2024-01-07T13:05:20;4.18;;;2.28;;
71888;SDS011;59762;49.998;14.858;2024-01-07T13:07:47;2.55;;;1.77;;
71888;SDS011;59762;49.998;14.858;2024-01-07T13:10:13;4.07;;;3.70;;
71888;SDS011;59762;49.998;14.858;2024-01-07T13:12:39;4.95;;;2.97;;
71888;SDS011;59762;49.998;14.858;2024-01-07T13:15:05;4.22;;;1.98;;
71888;SDS011;59762;49.998;14.858;2024-01-07T13:17:31;4.75;;;1.88;;
71888;SDS011;59762;49.998;14.858;2024-01-07T13:19:58;1.63;;;1.15;;
71888;SDS011;59762;49.998;14.858;2024-01-07T13:22:25;2.85;;;1.50;;
71888;SDS011;59762;49.998;14.858;2024-01-07T13:24:50;6.05;;;1.98;;
71888;SDS011;59762;49.998;14.858;2024-01-07T13:27:16;3.42;;;1.13;;
71888;SDS011;59762;49.998;14.858;2024-01-07T13:29:46;3.63;;;2.20;;
71888;SDS011;59762;49.998;14.858;2024-01-07T13:32:12;4.53;;;1.67;;
71888;SDS011;59762;49.998;14.858;2024-01-07T13:34:43;2.50;;;2.30;;
71888;SDS011;59762;49.998;14.858;2024-01-07T13:37:09;1.25;;;1.20;;
71888;SDS011;59762;49.998;14.858;2024-01-07T13:39:35;3.85;;;1.63;;
71888;SDS011;59762;49.998;14.858;2024-01-07T13:42:02;9.32;;;1.50;;
71888;SDS011;59762;49.998;14.858;2024-01-07T13:44:27;1.13;;;0.98;;
71888;SDS011;59762;49.998;14.858;2024-01-07T13:46:53;3.45;;;2.08;;
71888;SDS011;59762;49.998;14.858;2024-01-07T13:49:19;3.10;;;1.80;;
71888;SDS011;59762;49.998;14.858;2024-01-07T13:51:45;5.45;;;1.45;;
71888;SDS011;59762;49.998;14.858;2024-01-07T13:54:10;2.63;;;0.85;;
71888;SDS011;59762;49.998;14.858;2024-01-07T13:56:40;2.63;;;1.45;;
71888;SDS011;59762;49.998;14.858;2024-01-07T13:59:10;1.00;;;0.88;;
71888;SDS011;59762;49.998;14.858;2024-01-07T14:01:37;2.92;;;2.22;;
71888;SDS011;59762;49.998;14.858;2024-01-07T14:04:03;1.08;;;0.85;;
71888;SDS011;59762;49.998;14.858;2024-01-07T14:06:29;1.95;;;1.38;;
71888;SDS011;59762;49.998;14.858;2024-01-07T14:08:55;1.63;;;1.50;;
71888;SDS011;59762;49.998;14.858;2024-01-07T14:11:21;2.15;;;0.82;;
71888;SDS011;59762;49.998;14.858;2024-01-07T14:13:47;0.80;;;0.75;;
71888;SDS011;59762;49.998;14.858;2024-01-07T14:16:13;1.08;;;0.85;;
71888;SDS011;59762;49.998;14.858;2024-01-07T14:18:39;0.60;;;0.60;;
71888;SDS011;59762;49.998;14.858;2024-01-07T14:21:05;5.43;;;0.88;;
71888;SDS011;59762;49.998;14.858;2024-01-07T14:23:32;1.40;;;0.70;;
71888;SDS011;59762;49.998;14.858;2024-01-07T14:25:59;6.38;;;1.67;;
71888;SDS011;59762;49.998;14.858;2024-01-07T14:28:25;1.02;;;0.88;;
71888;SDS011;59762;49.998;14.858;2024-01-07T14:30:51;0.45;;;0.38;;
71888;SDS011;59762;49.998;14.858;2024-01-07T14:33:16;0.75;;;0.40;;
71888;SDS011;59762;49.998;14.858;2024-01-07T14:35:43;0.93;;;0.65;;
71888;SDS011;59762;49.998;14.858;2024-01-07T14:38:08;0.45;;;0.45;;